createdAt,value
2023-02-01T00:00:15.593Z,3.92
2023-02-01T00:02:43.604Z,3.95
2023-02-01T00:05:12.192Z,4.25
2023-02-01T00:07:40.037Z,3.85
2023-02-01T00:10:09.864Z,4.20
2023-02-01T00:12:38.681Z,3.10
2023-02-01T00:15:07.323Z,2.72
2023-02-01T00:17:37.870Z,3.78
2023-02-01T00:20:06.551Z,3.78
2023-02-01T00:22:34.304Z,4.72
2023-02-01T00:25:02.079Z,5.95
2023-02-01T00:27:29.835Z,3.55
2023-02-01T00:29:57.581Z,7.20
2023-02-01T00:32:25.297Z,6.88
2023-02-01T00:34:54.426Z,5.32
2023-02-01T00:37:22.641Z,5.65
2023-02-01T00:39:50.653Z,5.95
2023-02-01T00:42:18.409Z,5.55
2023-02-01T00:44:47.888Z,3.80
2023-02-01T00:47:15.634Z,5.68
2023-02-01T00:49:43.338Z,5.32
2023-02-01T00:52:12.477Z,5.05
2023-02-01T00:54:40.229Z,5.53
2023-02-01T00:57:08.518Z,4.88
2023-02-01T00:59:36.511Z,4.80
2023-02-01T01:02:04.292Z,4.53
2023-02-01T01:04:32.013Z,5.00
2023-02-01T01:06:59.803Z,4.63
2023-02-01T01:09:28.969Z,5.47
2023-02-01T01:11:57.709Z,5.05
2023-02-01T01:14:25.501Z,5.32
2023-02-01T01:16:53.256Z,5.10
2023-02-01T01:19:21.216Z,5.47
2023-02-01T01:21:49.244Z,4.47
2023-02-01T01:24:17.007Z,4.22
2023-02-01T01:26:46.162Z,3.83
2023-02-01T01:29:13.895Z,2.80
2023-02-01T01:31:41.688Z,3.17
2023-02-01T01:34:10.640Z,4.55
2023-02-01T01:36:39.013Z,4.78
2023-02-01T01:39:07.107Z,4.45
2023-02-01T01:41:34.848Z,4.88
2023-02-01T01:44:48.667Z,5.95
2023-02-01T01:47:18.344Z,4.22
2023-02-01T01:49:46.606Z,5.63
2023-02-01T01:52:15.143Z,5.03
2023-02-01T01:54:47.063Z,4.32
2023-02-01T01:57:20.534Z,3.90
2023-02-01T01:59:55.213Z,4.95
2023-02-01T02:02:24.342Z,2.85
2023-02-01T02:04:52.319Z,3.65
2023-02-01T02:07:27.112Z,5.10
2023-02-01T02:10:00.971Z,5.78
2023-02-01T02:12:30.254Z,3.13
2023-02-01T02:14:58.468Z,5.90
2023-02-01T02:17:39.491Z,4.97
2023-02-01T02:20:32.545Z,4.75
2023-02-01T02:23:47.738Z,5.55
2023-02-01T02:26:44.969Z,4.13
2023-02-01T02:29:54.953Z,8.90
2023-02-01T02:32:50.961Z,5.07
2023-02-01T02:35:28.259Z,5.63
2023-02-01T02:38:04.808Z,4.32
2023-02-01T02:40:39.239Z,5.20
2023-02-01T02:43:35.496Z,5.40
2023-02-01T02:46:27.923Z,6.47
2023-02-01T02:49:02.949Z,2.80
2023-02-01T02:51:55.128Z,4.57
2023-02-01T02:54:55.398Z,3.38
2023-02-01T02:57:47.641Z,3.33
2023-02-01T03:00:36.922Z,5.30
2023-02-01T03:03:23.506Z,3.60
2023-02-01T03:05:52.539Z,3.88
2023-02-01T03:08:24.200Z,4.68
2023-02-01T03:11:02.021Z,4.22
2023-02-01T03:13:37.331Z,3.60
2023-02-01T03:16:14.384Z,5.18
2023-02-01T03:18:50.870Z,5.45
2023-02-01T03:21:23.963Z,2.42
2023-02-01T03:23:55.400Z,3.60
2023-02-01T03:26:26.902Z,2.33
2023-02-01T03:28:58.069Z,3.30
2023-02-01T03:31:26.564Z,3.30
2023-02-01T03:33:54.456Z,4.32
2023-02-01T03:36:28.938Z,4.35
2023-02-01T03:39:04.928Z,2.90
2023-02-01T03:41:40.460Z,2.45
2023-02-01T03:44:15.475Z,3.63
2023-02-01T03:46:48.418Z,4.30
2023-02-01T03:49:24.216Z,3.78
2023-02-01T03:51:53.674Z,2.72
2023-02-01T03:54:25.840Z,2.40
2023-02-01T03:56:56.486Z,3.30
2023-02-01T03:59:25.006Z,1.40
2023-02-01T04:01:53.878Z,3.17
2023-02-01T04:04:21.922Z,3.17
2023-02-01T04:06:53.886Z,2.63
2023-02-01T04:09:23.697Z,2.30
2023-02-01T04:11:51.458Z,2.72
2023-02-01T04:14:19.356Z,5.15
2023-02-01T04:16:47.362Z,4.15
2023-02-01T04:19:15.103Z,3.72
2023-02-01T04:21:42.954Z,4.90
2023-02-01T04:24:11.589Z,3.88
2023-02-01T04:26:41.144Z,5.30
2023-02-01T04:29:10.824Z,4.38
2023-02-01T04:31:38.655Z,3.38
2023-02-01T04:34:06.455Z,3.70
2023-02-01T04:36:34.232Z,4.43
2023-02-01T04:39:02.096Z,3.65
2023-02-01T04:41:31.008Z,6.53
2023-02-01T04:44:00.049Z,4.85
2023-02-01T04:46:28.238Z,5.13
2023-02-01T04:48:55.999Z,6.38
2023-02-01T04:51:23.729Z,3.63
2023-02-01T04:53:51.497Z,3.38
2023-02-01T04:56:19.381Z,4.70
2023-02-01T04:58:47.070Z,2.25
2023-02-01T05:01:16.124Z,3.60
2023-02-01T05:03:43.859Z,3.50
2023-02-01T05:06:11.918Z,3.63
2023-02-01T05:08:39.756Z,3.90
2023-02-01T05:11:07.506Z,4.53
2023-02-01T05:13:49.608Z,3.35
2023-02-01T05:16:18.872Z,3.47
2023-02-01T05:18:49.258Z,6.13
2023-02-01T05:21:17.050Z,5.15
2023-02-01T05:24:02.238Z,4.07
2023-02-01T05:26:30.272Z,4.25
2023-02-01T05:28:58.585Z,5.75
2023-02-01T05:31:29.218Z,4.43
2023-02-01T05:33:57.198Z,4.35
2023-02-01T05:36:24.945Z,5.10
2023-02-01T05:38:52.757Z,4.28
2023-02-01T05:41:20.489Z,4.95
2023-02-01T05:43:48.201Z,4.25
2023-02-01T05:46:16.265Z,4.35
2023-02-01T05:48:45.571Z,5.82
2023-02-01T05:51:13.948Z,3.85
2023-02-01T05:53:41.769Z,3.13
2023-02-01T05:56:09.756Z,3.28
2023-02-01T05:58:37.646Z,2.20
2023-02-01T06:01:05.873Z,2.20
2023-02-01T06:03:34.078Z,2.63
2023-02-01T06:06:03.673Z,4.13
2023-02-01T06:08:31.797Z,4.57
2023-02-01T06:11:00.549Z,2.58
2023-02-01T06:13:28.565Z,2.95
2023-02-01T06:15:56.759Z,4.70
2023-02-01T06:18:24.720Z,6.50
2023-02-01T06:20:56.155Z,8.32
2023-02-01T06:23:25.693Z,6.38
2023-02-01T06:25:54.184Z,7.18
2023-02-01T06:28:22.597Z,6.88
2023-02-01T06:30:50.448Z,10.38
2023-02-01T06:33:18.223Z,8.25
2023-02-01T06:35:49.486Z,10.77
2023-02-01T06:38:17.226Z,8.35
2023-02-01T06:40:46.248Z,9.88
2023-02-01T06:43:13.966Z,10.82
2023-02-01T06:45:42.724Z,8.15
2023-02-01T06:48:10.440Z,7.60
2023-02-01T06:50:38.259Z,6.03
2023-02-01T06:53:07.476Z,5.82
2023-02-01T06:55:35.351Z,8.10
2023-02-01T06:58:04.464Z,11.82
2023-02-01T07:00:32.682Z,12.10
2023-02-01T07:03:01.011Z,11.68
2023-02-01T07:05:31.492Z,6.25
2023-02-01T07:07:59.374Z,13.95
2023-02-01T07:10:27.141Z,8.63
2023-02-01T07:12:58.748Z,13.55
2023-02-01T07:15:30.374Z,7.47
2023-02-01T07:17:58.739Z,13.65
2023-02-01T07:20:26.550Z,10.85
2023-02-01T07:22:58.137Z,11.20
2023-02-01T07:25:26.384Z,13.18
2023-02-01T07:27:54.108Z,6.35
2023-02-01T07:30:22.166Z,9.82
2023-02-01T07:32:51.452Z,6.90
2023-02-01T07:35:19.120Z,10.65
2023-02-01T07:37:46.948Z,13.38
2023-02-01T07:40:14.923Z,11.75
2023-02-01T07:42:43.063Z,11.00
2023-02-01T07:45:21.022Z,10.73
2023-02-01T07:47:50.878Z,16.30
2023-02-01T07:50:19.043Z,13.57
2023-02-01T07:52:46.825Z,10.35
2023-02-01T07:55:15.004Z,4.40
2023-02-01T07:57:43.576Z,8.82
2023-02-01T08:00:30.242Z,9.45
2023-02-01T08:03:00.946Z,9.82
2023-02-01T08:05:29.481Z,10.00
2023-02-01T08:07:59.659Z,14.60
2023-02-01T08:10:27.936Z,8.48
2023-02-01T08:13:00.855Z,10.88
2023-02-01T08:15:29.611Z,14.57
2023-02-01T08:17:57.884Z,14.15
2023-02-01T08:20:28.075Z,11.13
2023-02-01T08:22:56.199Z,15.23
2023-02-01T08:25:24.610Z,16.05
2023-02-01T08:27:54.391Z,9.57
2023-02-01T08:30:22.932Z,10.43
2023-02-01T08:32:50.753Z,10.63
2023-02-01T08:35:18.678Z,12.63
2023-02-01T08:37:47.791Z,10.15
2023-02-01T08:40:15.839Z,11.60
2023-02-01T08:42:52.773Z,10.82
2023-02-01T08:45:24.772Z,8.32
2023-02-01T08:47:52.654Z,10.02
2023-02-01T08:50:21.184Z,11.35
2023-02-01T08:52:50.959Z,9.30
2023-02-01T08:55:19.099Z,17.25
2023-02-01T08:57:47.048Z,11.38
2023-02-01T09:00:17.226Z,7.90
2023-02-01T09:02:45.239Z,7.30
2023-02-01T09:05:17.639Z,9.75
2023-02-01T09:07:45.577Z,7.15
2023-02-01T09:10:17.124Z,9.30
2023-02-01T09:12:44.921Z,8.00
2023-02-01T09:15:13.058Z,6.47
2023-02-01T09:17:42.733Z,13.68
2023-02-01T09:20:12.160Z,9.50
2023-02-01T09:22:40.176Z,13.00
2023-02-01T09:25:09.587Z,7.80
2023-02-01T09:27:38.705Z,7.50
2023-02-01T09:30:09.365Z,17.52
2023-02-01T09:32:37.816Z,10.88
2023-02-01T09:35:06.096Z,10.95
2023-02-01T09:37:33.963Z,18.55
2023-02-01T09:40:01.739Z,11.55
2023-02-01T09:42:47.960Z,8.75
2023-02-01T09:45:24.112Z,16.25
2023-02-01T09:47:56.024Z,7.65
2023-02-01T09:50:30.420Z,6.55
2023-02-01T09:53:03.457Z,5.47
2023-02-01T09:55:38.059Z,6.93
2023-02-01T10:00:39.557Z,11.15
2023-02-01T10:03:12.849Z,12.05
2023-02-01T10:05:59.034Z,7.17
2023-02-01T10:08:41.253Z,12.35
2023-02-01T10:11:23.024Z,7.40
2023-02-01T10:14:02.556Z,11.85
2023-02-01T10:16:43.473Z,9.43
2023-02-01T10:19:35.224Z,11.10
2023-02-01T10:22:06.698Z,9.20
2023-02-01T10:24:42.535Z,15.02
2023-02-01T10:27:22.712Z,12.50
2023-02-01T10:29:56.856Z,11.30
2023-02-01T10:32:26.861Z,13.98
2023-02-01T10:34:59.827Z,11.07
2023-02-01T10:37:33.225Z,12.80
2023-02-01T10:40:07.742Z,14.23
2023-02-01T10:42:35.602Z,13.45
2023-02-01T10:45:08.913Z,12.52
2023-02-01T10:47:36.705Z,10.43
2023-02-01T10:50:17.253Z,12.98
2023-02-01T10:52:50.113Z,13.85
2023-02-01T10:55:50.355Z,13.50
2023-02-01T10:58:20.389Z,6.82
2023-02-01T11:00:55.533Z,10.27
2023-02-01T11:03:38.990Z,14.63
2023-02-01T11:06:15.612Z,21.13
2023-02-01T11:08:50.673Z,16.23
2023-02-01T11:11:19.510Z,17.02
2023-02-01T11:13:54.807Z,12.45
2023-02-01T11:19:00.324Z,10.48
2023-02-01T11:21:29.128Z,11.68
2023-02-01T11:23:57.533Z,11.68
2023-02-01T11:26:27.931Z,12.70
2023-02-01T11:29:01.756Z,7.78
2023-02-01T11:31:31.504Z,20.23
2023-02-01T11:34:06.841Z,16.35
2023-02-01T11:36:37.840Z,13.85
2023-02-01T11:39:23.117Z,15.90
2023-02-01T11:42:00.375Z,8.95
2023-02-01T11:44:34.020Z,13.55
2023-02-01T11:47:28.565Z,13.73
2023-02-01T11:49:58.398Z,11.55
2023-02-01T11:52:46.043Z,10.63
2023-02-01T11:55:32.657Z,17.55
2023-02-01T11:58:15.413Z,13.15
2023-02-01T12:00:59.045Z,7.82
2023-02-01T12:03:55.112Z,10.65
2023-02-01T12:06:33.106Z,13.45
2023-02-01T12:09:18.453Z,10.50
2023-02-01T12:11:58.206Z,15.70
2023-02-01T12:14:39.459Z,17.27
2023-02-01T12:17:52.045Z,12.10
2023-02-01T12:20:47.078Z,7.60
2023-02-01T12:23:29.371Z,8.10
2023-02-01T12:26:09.222Z,5.80
2023-02-01T12:29:00.904Z,11.80
2023-02-01T12:32:03.108Z,11.20
2023-02-01T12:34:58.237Z,11.75
2023-02-01T12:37:42.176Z,5.18
2023-02-01T12:40:23.561Z,9.70
2023-02-01T12:43:00.021Z,15.13
2023-02-01T12:45:35.400Z,8.73
2023-02-01T12:48:14.259Z,13.65
2023-02-01T12:50:47.009Z,10.40
2023-02-01T12:53:23.011Z,8.77
2023-02-01T12:55:54.516Z,8.60
2023-02-01T12:58:28.131Z,9.18
2023-02-01T13:01:02.470Z,10.65
2023-02-01T13:03:38.724Z,15.63
2023-02-01T13:06:12.472Z,13.57
2023-02-01T13:08:47.629Z,10.13
2023-02-01T13:11:21.825Z,13.70
2023-02-01T13:14:05.772Z,14.10
2023-02-01T13:16:38.256Z,10.60
2023-02-01T13:19:14.743Z,13.90
2023-02-01T13:21:49.810Z,9.32
2023-02-01T13:24:31.936Z,12.10
2023-02-01T13:26:59.883Z,5.18
2023-02-01T13:29:30.098Z,11.32
2023-02-01T13:33:50.280Z,8.30
2023-02-01T13:35:42.426Z,9.50
2023-02-01T13:38:40.263Z,12.60
2023-02-01T13:41:27.779Z,13.57
2023-02-01T13:43:59.683Z,12.80
2023-02-01T13:46:28.392Z,13.90
2023-02-01T13:49:00.113Z,9.45
2023-02-01T13:51:39.947Z,8.32
2023-02-01T13:54:08.035Z,11.65
2023-02-01T13:56:45.750Z,11.77
2023-02-01T14:00:01.228Z,11.63
2023-02-01T14:03:04.438Z,8.32
2023-02-01T14:06:14.636Z,11.93
2023-02-01T14:09:15.307Z,10.07
2023-02-01T14:11:46.881Z,10.57
2023-02-01T14:14:47.864Z,10.63
2023-02-01T14:17:37.801Z,8.35
2023-02-01T14:20:49.828Z,16.92
2023-02-01T14:23:27.287Z,12.70
2023-02-01T14:26:11.362Z,12.45
2023-02-01T14:28:45.841Z,8.68
2023-02-01T14:34:01.091Z,10.85
2023-02-01T14:36:40.807Z,11.15
2023-02-01T14:39:22.973Z,10.15
2023-02-01T14:41:59.549Z,16.20
2023-02-01T14:44:37.923Z,11.55
2023-02-01T14:47:33.950Z,16.88
2023-02-01T14:50:24.174Z,4.97
2023-02-01T14:53:00.968Z,14.13
2023-02-01T14:55:35.871Z,10.88
2023-02-01T14:58:08.160Z,6.50
2023-02-01T15:00:37.504Z,9.45
2023-02-01T15:03:40.463Z,7.55
2023-02-01T15:06:25.493Z,19.17
2023-02-01T15:08:57.388Z,14.43
2023-02-01T15:11:25.179Z,9.90
2023-02-01T15:13:56.454Z,7.90
2023-02-01T15:16:27.238Z,8.50
2023-02-01T15:19:12.570Z,10.63
2023-02-01T15:21:47.030Z,13.65
2023-02-01T15:24:20.441Z,15.13
2023-02-01T15:26:49.347Z,8.18
2023-02-01T15:29:18.286Z,13.30
2023-02-01T15:31:49.798Z,9.05
2023-02-01T15:34:18.502Z,13.70
2023-02-01T15:37:01.585Z,9.45
2023-02-01T15:39:31.922Z,12.40
2023-02-01T15:42:02.942Z,9.60
2023-02-01T15:44:36.620Z,14.15
2023-02-01T15:47:17.174Z,12.65
2023-02-01T15:49:47.802Z,12.57
2023-02-01T15:52:24.327Z,12.88
2023-02-01T15:54:54.771Z,13.05
2023-02-01T15:57:31.592Z,9.93
2023-02-01T16:00:02.249Z,8.45
2023-02-01T16:02:46.065Z,12.07
2023-02-01T16:05:35.119Z,14.63
2023-02-01T16:08:05.987Z,6.15
2023-02-01T16:10:39.895Z,13.88
2023-02-01T16:13:08.065Z,10.63
2023-02-01T16:15:36.124Z,10.18
2023-02-01T16:18:05.530Z,12.70
2023-02-01T16:20:34.264Z,10.82
2023-02-01T16:23:02.000Z,11.57
2023-02-01T16:25:30.113Z,9.57
2023-02-01T16:27:57.934Z,4.13
2023-02-01T16:30:26.115Z,10.55
2023-02-01T16:32:55.814Z,10.40
2023-02-01T16:35:27.944Z,12.73
2023-02-01T16:37:56.421Z,11.75
2023-02-01T16:40:24.329Z,15.23
2023-02-01T16:42:56.004Z,14.05
2023-02-01T16:45:24.196Z,4.93
2023-02-01T16:47:55.757Z,10.25
2023-02-01T16:50:27.371Z,13.27
2023-02-01T16:52:55.341Z,8.15
2023-02-01T16:55:24.399Z,12.60
2023-02-01T16:57:52.664Z,15.55
2023-02-01T17:00:24.962Z,16.40
2023-02-01T17:02:53.707Z,9.98
2023-02-01T17:05:22.233Z,11.88
2023-02-01T17:07:52.265Z,12.05
2023-02-01T17:10:39.633Z,10.75
2023-02-01T17:13:10.271Z,9.90
2023-02-01T17:15:40.166Z,13.20
2023-02-01T17:18:10.618Z,13.30
2023-02-01T17:20:39.283Z,9.85
2023-02-01T17:23:08.792Z,11.45
2023-02-01T17:25:36.841Z,10.02
2023-02-01T17:28:04.980Z,17.17
2023-02-01T17:30:33.379Z,13.07
2023-02-01T17:33:10.273Z,10.60
2023-02-01T17:35:44.757Z,11.57
2023-02-01T17:38:14.305Z,10.63
2023-02-01T17:40:42.158Z,14.95
2023-02-01T17:43:14.702Z,8.68
2023-02-01T17:45:49.956Z,18.50
2023-02-01T17:48:19.586Z,12.43
2023-02-01T17:50:50.114Z,14.32
2023-02-01T17:53:21.872Z,10.45
2023-02-01T17:55:49.640Z,16.02
2023-02-01T17:58:18.539Z,8.82
2023-02-01T18:00:48.578Z,14.20
2023-02-01T18:03:24.364Z,11.50
2023-02-01T18:05:53.658Z,12.37
2023-02-01T18:08:24.798Z,10.45
2023-02-01T18:10:54.393Z,8.50
2023-02-01T18:13:22.715Z,11.68
2023-02-01T18:15:50.549Z,11.73
2023-02-01T18:18:18.417Z,10.43
2023-02-01T18:20:47.475Z,13.45
2023-02-01T18:23:18.175Z,7.45
2023-02-01T18:25:48.089Z,11.80
2023-02-01T18:28:16.670Z,12.13
2023-02-01T18:30:46.958Z,11.07
2023-02-01T18:33:16.977Z,15.30
2023-02-01T18:35:44.881Z,9.75
2023-02-01T18:38:12.684Z,14.70
2023-02-01T18:40:44.836Z,12.40
2023-02-01T18:43:14.873Z,12.55
2023-02-01T18:45:44.795Z,12.38
2023-02-01T18:48:14.280Z,10.60
2023-02-01T18:50:44.590Z,12.07
2023-02-01T18:53:15.319Z,9.38
2023-02-01T18:55:44.020Z,11.98
2023-02-01T18:58:16.052Z,12.73
2023-02-01T19:00:45.099Z,11.70
2023-02-01T19:03:13.575Z,10.93
2023-02-01T19:05:41.963Z,9.90
2023-02-01T19:08:10.227Z,6.68
2023-02-01T19:10:38.597Z,11.77
2023-02-01T19:13:06.813Z,9.23
2023-02-01T19:15:40.335Z,9.80
2023-02-01T19:18:09.275Z,16.63
2023-02-01T19:20:41.236Z,8.13
2023-02-01T19:23:09.246Z,14.48
2023-02-01T19:25:37.247Z,10.57
2023-02-01T19:28:05.853Z,11.52
2023-02-01T19:30:33.624Z,14.10
2023-02-01T19:33:04.446Z,11.32
2023-02-01T19:35:32.559Z,13.23
2023-02-01T19:38:00.985Z,8.30
2023-02-01T19:40:29.254Z,11.88
2023-02-01T19:42:56.997Z,15.50
2023-02-01T19:45:25.248Z,9.02
2023-02-01T19:47:53.153Z,8.75
2023-02-01T19:50:23.264Z,12.00
2023-02-01T19:52:51.132Z,11.30
2023-02-01T19:55:18.876Z,9.73
2023-02-01T19:57:46.594Z,11.00
2023-02-01T20:00:16.553Z,13.02
2023-02-01T20:02:44.438Z,15.15
2023-02-01T20:05:12.270Z,13.00
2023-02-01T20:07:41.568Z,7.03
2023-02-01T20:10:10.733Z,11.85
2023-02-01T20:12:38.542Z,9.82
2023-02-01T20:15:07.929Z,14.05
2023-02-01T20:17:36.480Z,13.13
2023-02-01T20:20:04.742Z,9.65
2023-02-01T20:22:34.077Z,9.15
2023-02-01T20:25:04.270Z,12.32
2023-02-01T20:27:33.173Z,12.85
2023-02-01T20:30:01.856Z,10.68
2023-02-01T20:32:32.070Z,13.88
2023-02-01T20:34:59.859Z,11.63
2023-02-01T20:37:27.646Z,10.48
2023-02-01T20:39:55.474Z,16.42
2023-02-01T20:42:24.542Z,14.55
2023-02-01T20:44:52.407Z,9.75
2023-02-01T20:47:20.407Z,8.60
2023-02-01T20:49:48.378Z,11.15
2023-02-01T20:52:16.208Z,8.05
2023-02-01T20:54:44.092Z,14.18
2023-02-01T20:57:12.217Z,7.82
2023-02-01T20:59:41.350Z,11.13
2023-02-01T21:02:11.022Z,12.45
2023-02-01T21:04:39.132Z,11.50
2023-02-01T21:07:10.198Z,10.43
2023-02-01T21:09:40.738Z,14.45
2023-02-01T21:12:09.439Z,11.75
2023-02-01T21:14:37.242Z,9.43
2023-02-01T21:17:06.396Z,16.38
2023-02-01T21:19:43.011Z,15.88
2023-02-01T21:22:11.317Z,16.17
2023-02-01T21:24:40.732Z,12.05
2023-02-01T21:27:08.713Z,16.88
2023-02-01T21:29:36.435Z,17.15
2023-02-01T21:32:04.528Z,15.32
2023-02-01T21:34:33.853Z,15.30
2023-02-01T21:37:01.911Z,8.13
2023-02-01T21:39:30.030Z,16.38
2023-02-01T21:42:17.562Z,13.60
2023-02-01T21:44:47.457Z,20.45
2023-02-01T21:47:17.347Z,11.20
2023-02-01T21:49:49.732Z,12.65
2023-02-01T21:52:22.960Z,10.23
2023-02-01T21:54:58.249Z,10.02
2023-02-01T21:57:26.359Z,14.13
2023-02-01T21:59:54.028Z,12.38
2023-02-01T22:02:21.856Z,14.60
2023-02-01T22:04:51.005Z,9.80
2023-02-01T22:07:19.115Z,14.82
2023-02-01T22:09:46.823Z,11.80
2023-02-01T22:12:15.420Z,16.27
2023-02-01T22:14:44.873Z,15.85
2023-02-01T22:17:13.878Z,13.82
2023-02-01T22:19:42.428Z,9.90
2023-02-01T22:22:12.967Z,8.35
2023-02-01T22:24:40.736Z,12.23
2023-02-01T22:27:13.999Z,8.43
2023-02-01T22:29:42.970Z,14.95
2023-02-01T22:32:12.050Z,9.77
2023-02-01T22:34:39.824Z,13.00
2023-02-01T22:37:07.577Z,15.02
2023-02-01T22:39:36.856Z,14.45
2023-02-01T22:42:04.761Z,13.48
2023-02-01T22:44:32.418Z,11.95
2023-02-01T22:47:00.236Z,15.38
2023-02-01T22:49:27.899Z,5.90
2023-02-01T22:51:55.608Z,9.60
2023-02-01T22:54:23.382Z,13.32
2023-02-01T22:56:53.002Z,12.15
2023-02-01T22:59:20.744Z,10.73
2023-02-01T23:01:48.530Z,13.15
2023-02-01T23:04:16.507Z,15.30
2023-02-01T23:06:44.197Z,9.73
2023-02-01T23:09:22.302Z,8.98
2023-02-01T23:11:50.686Z,9.50
2023-02-01T23:14:20.030Z,8.77
2023-02-01T23:16:49.487Z,14.95
2023-02-01T23:19:18.180Z,9.23
2023-02-01T23:21:46.048Z,20.05
2023-02-01T23:24:14.113Z,9.85
2023-02-01T23:26:42.446Z,12.15
2023-02-01T23:29:17.809Z,8.38
2023-02-01T23:31:47.358Z,10.90
2023-02-01T23:34:15.096Z,14.55
2023-02-01T23:36:42.823Z,10.70
2023-02-01T23:39:10.578Z,11.50
2023-02-01T23:41:38.271Z,14.52
2023-02-01T23:44:06.374Z,10.45
2023-02-01T23:46:35.998Z,12.45
2023-02-01T23:49:07.006Z,13.38
2023-02-01T23:51:35.275Z,15.93
2023-02-01T23:54:03.789Z,17.75
2023-02-01T23:56:33.905Z,11.07
2023-02-01T23:59:02.806Z,11.60
